createdAt,value
2022-12-17T00:01:42.219Z,987.8
2022-12-17T00:16:15.171Z,988
2022-12-17T00:45:38.056Z,988.3
2022-12-17T01:00:09.555Z,988.4
2022-12-17T01:14:42.695Z,988.5
2022-12-17T01:29:15.987Z,988.6
2022-12-17T01:43:49.978Z,988.7
2022-12-17T01:58:20.975Z,988.7
2022-12-17T02:12:55.318Z,988.8
2022-12-17T02:27:29.074Z,988.9
2022-12-17T02:42:01.243Z,989
2022-12-17T02:56:34.584Z,989.1
2022-12-17T03:11:06.152Z,989.2
2022-12-17T03:25:38.784Z,989.3
2022-12-17T03:40:11.477Z,989.3
2022-12-17T03:54:45.150Z,989.4
2022-12-17T04:09:17.287Z,989.4
2022-12-17T04:23:50.456Z,989.5
2022-12-17T04:38:22.069Z,989.9
2022-12-17T04:52:53.268Z,990
2022-12-17T05:07:26.088Z,990
2022-12-17T05:21:58.374Z,990.1
2022-12-17T05:36:30.431Z,990.4
2022-12-17T05:51:03.479Z,990.4
2022-12-17T06:05:37.829Z,990.4
2022-12-17T06:20:11.309Z,990.6
2022-12-17T06:34:45.047Z,990.7
2022-12-17T06:49:17.343Z,990.9
2022-12-17T07:03:51.408Z,991
2022-12-17T07:18:23.912Z,991.1
2022-12-17T07:32:56.181Z,991.2
2022-12-17T07:47:28.682Z,991.3
2022-12-17T08:02:02.588Z,991.4
2022-12-17T08:16:35.360Z,991.4
2022-12-17T08:31:08.539Z,991.7
2022-12-17T08:45:41.163Z,991.7
2022-12-17T09:00:13.090Z,991.8
2022-12-17T09:14:50.659Z,991.9
2022-12-17T09:29:23.915Z,992
2022-12-17T09:43:53.087Z,992
2022-12-17T09:58:22.710Z,992
2022-12-17T10:12:57.545Z,992.1
2022-12-17T10:27:30.838Z,992
2022-12-17T10:42:04.440Z,992.1
2022-12-17T10:56:38.470Z,992.1
2022-12-17T11:11:12.255Z,992.3
2022-12-17T11:25:45.660Z,992.3
2022-12-17T11:40:20.054Z,992.3
2022-12-17T11:54:57.437Z,992.2
2022-12-17T12:09:28.989Z,992.2
2022-12-17T12:24:02.994Z,992.2
2022-12-17T12:38:46.970Z,992.2
2022-12-17T12:53:16.057Z,992.1
2022-12-17T13:07:49.050Z,992.1
2022-12-17T13:22:24.935Z,992
2022-12-17T13:36:56.921Z,992
2022-12-17T13:51:30.362Z,992
2022-12-17T14:06:03.951Z,992.1
2022-12-17T14:20:37.688Z,992.2
2022-12-17T14:35:11.497Z,992.3
2022-12-17T14:49:42.819Z,992.3
2022-12-17T15:04:14.936Z,992.3
2022-12-17T15:18:47.776Z,992.3
2022-12-17T15:33:21.222Z,992.4
2022-12-17T15:47:53.746Z,992.6
2022-12-17T16:02:27.453Z,992.6
2022-12-17T16:17:00.417Z,992.8
2022-12-17T16:31:33.926Z,992.9
2022-12-17T16:46:12.724Z,993
2022-12-17T17:00:41.565Z,993
2022-12-17T17:15:13.611Z,993.1
2022-12-17T17:29:45.342Z,993.2
2022-12-17T17:44:19.643Z,993.3
2022-12-17T17:58:52.159Z,993.4
2022-12-17T18:13:23.826Z,993.5
2022-12-17T18:27:57.551Z,993.6
2022-12-17T18:42:30.415Z,993.6
2022-12-17T18:57:03.288Z,993.6
2022-12-17T19:11:43.957Z,993.7
2022-12-17T19:26:11.942Z,993.8
2022-12-17T19:40:43.982Z,993.8
2022-12-17T19:55:14.999Z,993.9
2022-12-17T20:09:47.972Z,994.1
2022-12-17T20:24:21.251Z,994.1
2022-12-17T20:38:56.004Z,994
2022-12-17T20:53:27.687Z,994.1
2022-12-17T21:08:00.250Z,994.1
2022-12-17T21:22:33.991Z,994.2
2022-12-17T21:37:09.948Z,994.5
2022-12-17T21:51:39.388Z,994.3
2022-12-17T22:06:12.500Z,994.5
2022-12-17T22:20:44.719Z,994.4
2022-12-17T22:44:40.345Z,994.6
2022-12-17T22:58:38.296Z,994.6
2022-12-17T23:13:10.624Z,994.7
2022-12-17T23:27:45.101Z,994.8
2022-12-17T23:42:16.233Z,994.7
2022-12-17T23:56:50.235Z,995
